Terminal Aerodrome Forecast
Issued by NWS

Home | Current Version | Previous Version | Text Only | Print | Product List | Glossary On
Versions: 1 2 3 4 5 6 7 8 9 10 11 12 13 14 15 16 17 18 19 20
000
FTAK31 PAJN 251503 AAC
TAFAWG
TAF AMD
PAWG 251503Z 2515/2612 08007G17KT P6SM VCSH SCT010 OVC020
      TEMPO 2515/2518 3SM -SHSN BR BKN010 OVC015
     FM251800 35007KT P6SM VCSH SCT015 OVC040
     FM252100 30005KT P6SM SCT050
      AMD LTD TO CLD VIS AND WIND 2512/2515=

USA.gov is the U.S. government's official web portal to all federal, state and local government web resources and services.